Aeroporto :
LOGIN :

Iscrizione | Disclaimer

   EN    FR    IT 

 










Sommario :    VFR   VFR Marginale   IFR   IFR Intensivo   IFR Molto Intensivo
Visibilità : 
Base nubi : 
>= 8 km
>= 3000ft
5 / 8 km
1000 / 3000 ft
1500m / 5 km
500 / 1000 ft
800 / 1500m
200 / 500 ft
< 800m
< 200 ft
Simboli :   Temporali  Nebbia  Neve Forte  Precipitazioni Forti  Vento > 20 kt
SIGMETs :   Varie  Temporali  Ghiacco  Turbolenza  Onda orograficha  Ceneri Vulcaniche







- Altitudine del aeroporto : 628 ft
- Codice IATA : CMR
- Carte del aeroporto


LFGA - Colmar-Houssen

ULTIMO METAR :
  • 200100Z AUTO 34006KT CAVOK 22/13 Q1012

METARs OBSOLETI :
  • 200030Z AUTO VRB02KT CAVOK 22/14 Q1012
  • 200000Z AUTO 23004KT 190V260 CAVOK 22/13 Q1012
  • 192330Z AUTO 26006KT 230V290 9999 ///CB 23/12 Q1012
  • 192300Z AUTO 31004KT 230V330 CAVOK 22/14 Q1012
  • 192230Z AUTO VRB03KT CAVOK 21/14 Q1011

TAF N/A
Nessun NOTAM noto per questo aeroporto.



MetMap, La meteo Aeronautica in un colpo d'occhio ! - Copyright ORBIFLY Dicembre 2007 - Disclaimer

ORBIFLY MET'MAP TEAM :

Programmazione e sviluppo : Alexandra Zaïnal
Concezione e sviluppo : Baudouin d'Aumeries
Co-Programmazione e sviluppo : Marc-Olivier Méhu
Supporto tecnico e logistico : Manuel Goepfert
Aiuto per la traduzione : Arnaldo La Scala

Contatto : metmap@orbifly.com




FONTI E CREDITI :

   NOAA